Home PIREPS Pireps

Flight SAB2718

  • Submitted By: Carl Hermans
  • Departure Airport: airoport Geneve-Cointrin (LSGG)
  • Arrival Airport: Bruxelles National (EBBR)
  • Aircraft: B737-500 (OO-SAB)
  • Flight Time: 01.37
  • Date Submitted: 01/03/2016
  • Status: Accepted
Flight Details
Gross Revenue:
(123 load / € 0.00 per unit
€ 0.00
Fuel Cost:
(4039 fuel used @ 5.1 / unit)
€ 20,598.90

Additional Log Information:

View Log

Aircraft Used in flight is B737-600 Sabana
17:07 Brakes are On
17:15 Engine 1 Started
17:16 Navigation Lights ON at 1420 AGL
17:16 Beacon Lights ON at 1420 AGL
17:16Flaps 1 Selected at 1420ft and 3kts
17:16 Engine 2 Started
17:16Flaps 3 Selected at 1420ft and 3kts
17:18 Taxi Lights ON at 1420 AGL
17:18 Brakes are Released
17:22 Brakes are On
17:25 Brakes are Released
17:25 Taxi Lights OFF at 1420 AGL
17:26 You Took off @ 145 Knots and Flaps at Position 3
Departure Weather
LSGG 011550Z 21005KT 170V240 9999 FEW050 BKN070 OVC085 09/M05 Q1020 NOSIGrn
17:26 Landing Gear Up @ 150 Knots and 1450 Feet
17:27Flaps 2 Selected at 4050ft and 199kts
17:27Flaps Retracted at 4480ft and 213kts
17:28 Below 10000 feet you are not allowed to go over 250 knots
18:36Flaps 1 Selected at 2030ft and 197kts
18:36Flaps 2 Selected at 2030ft and 196kts
18:36Flaps 3 Selected at 2040ft and 190kts
18:39Flaps 4 Selected at 2080ft and 138kts
18:39 Landing Gear Down @ 138 Knots and 2090 Feet
18:39Flaps 5 Selected at 2090ft and 138kts
18:40Flaps 6 Selected at 2100ft and 137kts
18:41Flaps 8 Selected at 2110ft and 137kts
18:44 You Landed @ 107 Knots and with -1500 Vertical Speed
Arrival Weather
EBBR 011720Z 21017G27KT 3600 -DZRA SCT005 BKN011 05/04 Q1009 TEMPO 2500 DZRA BKN008rn
18:44 Your Landing was very hard
18:44 Paused
18:45 Brussels Bel-Track1.0.0.11

Route Map

Corporate About Us Our Team Vacancies Information Fleet Route Network Rules and Regulations Operations Flight Schedules Event Center Tours Partners IVAO Vatsim Acars dev FSCB

fb Users Online Belgium ISMAIL SAIF , France André Vincent,
3 Pilot(s) and 181 Guest(s) Online
CMS by phpVMS - Design by Crazycreatives.com - Copyright © 2018 - Brussels Airlines Virtual